createdAt,value
2018-10-01T00:02:07.743Z,100.00
2018-10-01T00:04:36.035Z,100.00
2018-10-01T00:07:04.344Z,100.00
2018-10-01T00:09:32.634Z,100.00
2018-10-01T00:12:00.934Z,100.00
2018-10-01T00:14:29.242Z,100.00
2018-10-01T00:16:57.531Z,100.00
2018-10-01T00:19:25.851Z,100.00
2018-10-01T00:24:55.912Z,100.00
2018-10-01T00:27:29.194Z,100.00
2018-10-01T00:29:57.517Z,100.00
2018-10-01T00:32:25.821Z,100.00
2018-10-01T00:34:55.148Z,100.00
2018-10-01T00:37:23.460Z,100.00
2018-10-01T00:39:51.793Z,100.00
2018-10-01T00:42:20.116Z,100.00
2018-10-01T00:44:48.445Z,100.00
2018-10-01T00:47:16.774Z,100.00
2018-10-01T00:49:45.108Z,100.00
2018-10-01T00:52:15.428Z,100.00
2018-10-01T00:54:43.762Z,100.00
2018-10-01T00:57:12.160Z,100.00
2018-10-01T00:59:41.512Z,100.00
2018-10-01T01:02:09.821Z,100.00
2018-10-01T01:04:38.141Z,100.00
2018-10-01T01:07:07.447Z,100.00
2018-10-01T01:09:35.768Z,100.00
2018-10-01T01:12:04.095Z,100.00
2018-10-01T01:14:32.435Z,100.00
2018-10-01T01:17:00.759Z,100.00
2018-10-01T01:19:29.080Z,100.00
2018-10-01T01:21:57.421Z,100.00
2018-10-01T01:24:25.756Z,100.00
2018-10-01T01:26:54.108Z,100.00
2018-10-01T01:29:22.448Z,100.00
2018-10-01T01:31:50.788Z,100.00
2018-10-01T01:34:19.120Z,100.00
2018-10-01T01:36:47.456Z,100.00
2018-10-01T01:39:15.763Z,98.29
2018-10-01T01:41:44.080Z,98.46
2018-10-01T01:44:12.384Z,97.73
2018-10-01T01:46:40.716Z,96.74
2018-10-01T01:49:09.013Z,96.24
2018-10-01T01:51:37.333Z,95.37
2018-10-01T01:54:05.685Z,96.09
2018-10-01T01:56:34.907Z,94.39
2018-10-01T01:59:03.226Z,94.21
2018-10-01T02:01:31.535Z,94.01
2018-10-01T02:04:00.754Z,91.08
2018-10-01T02:06:29.073Z,90.02
2018-10-01T02:15:59.392Z,91.78
2018-10-01T02:18:28.704Z,89.86
2018-10-01T02:20:57.019Z,90.26
2018-10-01T02:23:25.336Z,89.25
2018-10-01T02:25:55.587Z,87.71
2018-10-01T02:28:23.893Z,87.07
2018-10-01T02:30:52.204Z,86.32
2018-10-01T02:33:20.536Z,84.89
2018-10-01T02:35:48.862Z,83.86
2018-10-01T02:38:17.174Z,86.62
2018-10-01T02:40:45.507Z,84.92
2018-10-01T02:43:13.811Z,83.04
2018-10-01T02:45:42.122Z,81.27
2018-10-01T02:48:10.449Z,81.33
2018-10-01T03:06:32.711Z,78.82
2018-10-01T03:09:01.007Z,79.09
2018-10-01T03:11:29.292Z,79.51
2018-10-01T03:13:57.595Z,79.78
2018-10-01T03:16:25.883Z,79.07
2018-10-01T03:18:54.164Z,77.97
2018-10-01T03:21:22.471Z,77.18
2018-10-01T03:23:50.751Z,78.86
2018-10-01T03:26:19.048Z,78.28
2018-10-01T03:28:47.334Z,78.11
2018-10-01T03:31:15.615Z,78.14
2018-10-01T03:33:43.915Z,77.77
2018-10-01T03:36:12.199Z,78.59
2018-10-01T03:38:40.510Z,77.18
2018-10-01T03:41:08.791Z,77.66
2018-10-01T03:43:37.076Z,77.19
2018-10-01T03:46:05.366Z,78.49
2018-10-01T03:48:33.655Z,77.85
2018-10-01T03:51:01.955Z,77.68
2018-10-01T03:53:30.251Z,77.23
2018-10-01T03:55:58.534Z,77.58
2018-10-01T03:58:26.831Z,77.24
2018-10-01T04:00:55.120Z,77.96
2018-10-01T04:03:23.429Z,78.03
2018-10-01T04:05:51.712Z,78.47
2018-10-01T04:08:20.016Z,78.08
2018-10-01T04:10:48.300Z,77.73
2018-10-01T04:13:16.588Z,78.11
2018-10-01T04:15:44.879Z,77.45
2018-10-01T04:18:13.185Z,77.57
2018-10-01T04:20:41.543Z,76.28
2018-10-01T04:23:09.796Z,76.78
2018-10-01T04:25:38.095Z,76.02
2018-10-01T04:28:06.443Z,76.35
2018-10-01T04:30:34.671Z,77.29
2018-10-01T04:33:02.963Z,76.61
2018-10-01T04:35:31.255Z,77.55
2018-10-01T04:37:59.550Z,76.19
2018-10-01T04:40:27.852Z,75.52
2018-10-01T04:42:56.151Z,77.14
2018-10-01T04:45:24.439Z,76.94
2018-10-01T04:47:52.726Z,76.94
2018-10-01T04:50:21.036Z,76.78
2018-10-01T04:52:49.319Z,76.72
2018-10-01T04:55:17.615Z,76.01
2018-10-01T04:57:45.898Z,76.40
2018-10-01T05:00:14.188Z,75.85
2018-10-01T05:02:42.478Z,77.09
2018-10-01T05:05:10.771Z,77.57
2018-10-01T05:07:39.067Z,76.85
2018-10-01T05:10:07.355Z,77.60
2018-10-01T05:12:35.659Z,76.64
2018-10-01T05:15:03.943Z,77.80
2018-10-01T05:17:32.227Z,75.68
2018-10-01T05:20:00.532Z,75.29
2018-10-01T05:22:28.818Z,77.11
2018-10-01T05:24:57.115Z,77.30
2018-10-01T05:27:25.415Z,75.94
2018-10-01T05:29:53.725Z,77.61
2018-10-01T05:32:22.012Z,77.71
2018-10-01T05:34:50.300Z,75.84
2018-10-01T05:37:18.599Z,76.62
2018-10-01T05:39:46.905Z,76.54
2018-10-01T05:42:15.187Z,77.73
2018-10-01T05:44:43.495Z,77.39
2018-10-01T05:47:11.798Z,77.66
2018-10-01T05:49:40.120Z,77.22
2018-10-01T05:52:08.409Z,77.75
2018-10-01T05:54:36.701Z,78.12
2018-10-01T05:57:05.007Z,78.76
2018-10-01T05:59:33.291Z,79.06
2018-10-01T06:02:01.589Z,78.65
2018-10-01T06:04:29.888Z,78.89
2018-10-01T06:06:58.192Z,80.34
2018-10-01T06:09:26.478Z,81.46
2018-10-01T06:11:54.805Z,81.07
2018-10-01T06:14:23.070Z,79.81
2018-10-01T06:16:51.383Z,79.94
2018-10-01T06:19:19.758Z,81.44
2018-10-01T06:21:48.179Z,82.32
2018-10-01T06:24:16.478Z,83.36
2018-10-01T06:26:44.782Z,81.94
2018-10-01T06:29:13.130Z,81.35
2018-10-01T06:31:41.458Z,80.73
2018-10-01T06:34:09.765Z,82.93
2018-10-01T06:36:38.040Z,81.84
2018-10-01T06:39:06.435Z,83.12
2018-10-01T06:41:38.117Z,82.71
2018-10-01T06:44:06.467Z,82.02
2018-10-01T06:46:34.829Z,82.90
2018-10-01T06:49:03.140Z,82.66
2018-10-01T06:51:31.462Z,84.27
2018-10-01T06:53:59.751Z,84.25
2018-10-01T06:56:28.034Z,84.39
2018-10-01T06:58:56.363Z,85.29
2018-10-01T07:01:24.659Z,85.54
2018-10-01T07:03:52.967Z,84.91
2018-10-01T07:06:21.264Z,85.55
2018-10-01T07:08:49.592Z,86.74
2018-10-01T07:11:17.964Z,86.08
2018-10-01T07:13:46.179Z,86.68
2018-10-01T07:16:14.492Z,86.20
2018-10-01T07:18:42.763Z,86.87
2018-10-01T07:21:11.059Z,87.55
2018-10-01T07:23:39.353Z,85.23
2018-10-01T07:26:07.646Z,87.12
2018-10-01T07:28:35.964Z,85.30
2018-10-01T07:31:04.259Z,86.82
2018-10-01T07:33:32.545Z,86.22
2018-10-01T07:36:00.896Z,86.14
2018-10-01T07:38:29.160Z,86.97
2018-10-01T07:40:57.435Z,85.98
2018-10-01T07:43:25.731Z,87.83
2018-10-01T07:45:54.023Z,86.78
2018-10-01T07:48:22.364Z,87.25
2018-10-01T07:50:50.805Z,86.71
2018-10-01T07:53:19.013Z,88.34
2018-10-01T07:55:47.336Z,87.34
2018-10-01T07:58:15.632Z,87.74
2018-10-01T08:00:43.970Z,85.57
2018-10-01T08:03:12.303Z,87.71
2018-10-01T08:05:40.592Z,86.98
2018-10-01T08:08:08.958Z,86.05
2018-10-01T08:10:37.187Z,86.75
2018-10-01T08:13:05.472Z,86.55
2018-10-01T08:15:33.767Z,87.06
2018-10-01T08:18:02.055Z,87.92
2018-10-01T08:20:30.412Z,87.66
2018-10-01T08:22:58.648Z,89.28
2018-10-01T08:25:26.935Z,88.53
2018-10-01T08:27:55.227Z,89.59
2018-10-01T08:30:23.516Z,89.58
2018-10-01T08:32:51.803Z,90.67
2018-10-01T08:35:20.099Z,90.09
2018-10-01T08:37:48.511Z,91.43
2018-10-01T08:40:16.795Z,91.57
2018-10-01T08:42:45.083Z,92.11
2018-10-01T08:45:13.376Z,93.87
2018-10-01T08:47:41.725Z,93.49
2018-10-01T08:50:09.990Z,94.59
2018-10-01T08:52:38.247Z,93.74
2018-10-01T08:55:06.554Z,92.87
2018-10-01T08:57:34.853Z,93.71
2018-10-01T09:00:03.142Z,93.96
2018-10-01T09:02:31.489Z,94.17
2018-10-01T09:04:59.739Z,94.88
2018-10-01T09:07:28.012Z,95.29
2018-10-01T09:09:56.303Z,95.59
2018-10-01T09:12:24.597Z,94.99
2018-10-01T09:14:52.927Z,95.37
2018-10-01T09:17:21.204Z,93.42
2018-10-01T09:19:49.483Z,94.21
2018-10-01T09:22:17.774Z,92.31
2018-10-01T09:24:46.059Z,93.66
2018-10-01T09:27:14.360Z,92.60
2018-10-01T09:29:42.647Z,90.61
2018-10-01T09:32:11.010Z,90.15
2018-10-01T09:34:39.235Z,92.00
2018-10-01T09:37:07.535Z,91.09
2018-10-01T09:39:35.831Z,90.33
2018-10-01T09:42:04.137Z,92.03
2018-10-01T09:44:32.484Z,89.79
2018-10-01T09:47:00.715Z,90.05
2018-10-01T09:49:28.999Z,90.95
2018-10-01T09:51:57.310Z,89.76
2018-10-01T09:54:25.591Z,90.26
2018-10-01T09:56:53.908Z,91.75
2018-10-01T09:59:22.172Z,90.29
2018-10-01T10:01:50.460Z,90.07
2018-10-01T10:04:18.776Z,88.92
2018-10-01T10:06:47.039Z,89.18
2018-10-01T10:09:15.335Z,87.00
2018-10-01T10:11:43.619Z,87.53
2018-10-01T10:14:11.989Z,88.64
2018-10-01T10:16:40.300Z,85.59
2018-10-01T10:19:08.482Z,87.03
2018-10-01T10:21:36.783Z,86.98
2018-10-01T10:24:05.072Z,87.51
2018-10-01T10:26:33.383Z,84.60
2018-10-01T10:29:02.032Z,84.95
2018-10-01T10:31:30.353Z,85.52
2018-10-01T10:33:58.639Z,85.09
2018-10-01T10:36:26.900Z,85.07
2018-10-01T10:38:55.196Z,82.42
2018-10-01T10:41:23.480Z,83.89
2018-10-01T10:43:51.775Z,83.65
2018-10-01T10:46:20.071Z,83.40
2018-10-01T10:48:48.358Z,78.54
2018-10-01T10:51:16.659Z,78.94
2018-10-01T10:53:44.947Z,77.82
2018-10-01T10:56:13.319Z,79.31
2018-10-01T10:58:41.523Z,79.94
2018-10-01T11:01:09.828Z,78.61
2018-10-01T11:03:38.119Z,79.83
2018-10-01T11:06:06.398Z,78.47
2018-10-01T11:08:34.763Z,78.16
2018-10-01T11:11:02.991Z,79.26
2018-10-01T11:13:31.281Z,77.05
2018-10-01T11:15:59.574Z,75.34
2018-10-01T11:18:28.148Z,72.68
2018-10-01T11:20:56.268Z,73.65
2018-10-01T11:23:24.468Z,73.16
2018-10-01T11:25:52.759Z,74.72
2018-10-01T11:28:21.051Z,74.48
2018-10-01T11:30:49.344Z,73.52
2018-10-01T11:33:17.682Z,75.45
2018-10-01T11:35:45.931Z,73.72
2018-10-01T11:38:14.225Z,70.64
2018-10-01T11:40:42.508Z,70.75
2018-10-01T11:43:10.807Z,70.50
2018-10-01T11:45:39.167Z,69.86
2018-10-01T11:48:07.387Z,70.14
2018-10-01T11:50:35.743Z,69.87
2018-10-01T11:53:04.276Z,70.09
2018-10-01T11:55:32.571Z,71.22
2018-10-01T11:58:00.859Z,70.20
2018-10-01T12:00:29.158Z,70.79
2018-10-01T12:02:57.448Z,70.82
2018-10-01T12:05:25.731Z,71.87
2018-10-01T12:07:54.028Z,71.29
2018-10-01T12:10:22.343Z,70.44
2018-10-01T12:12:50.614Z,69.13
2018-10-01T12:15:19.034Z,70.40
2018-10-01T12:17:47.199Z,70.13
2018-10-01T12:20:15.487Z,70.76
2018-10-01T12:22:43.775Z,69.19
2018-10-01T12:25:12.073Z,69.04
2018-10-01T12:27:40.392Z,67.51
2018-10-01T12:30:08.651Z,67.96
2018-10-01T12:32:36.938Z,67.09
2018-10-01T12:35:05.302Z,68.42
2018-10-01T12:37:33.511Z,67.23
2018-10-01T12:40:01.787Z,67.61
2018-10-01T12:42:30.079Z,65.73
2018-10-01T12:44:58.433Z,63.57
2018-10-01T12:47:26.772Z,61.86
2018-10-01T12:49:55.053Z,61.04
2018-10-01T12:52:23.347Z,62.38
2018-10-01T12:54:51.636Z,64.24
2018-10-01T12:57:20.149Z,63.13
2018-10-01T12:59:48.403Z,63.70
2018-10-01T13:02:16.683Z,65.57
2018-10-01T13:04:44.983Z,66.22
2018-10-01T13:07:13.279Z,64.40
2018-10-01T13:09:41.579Z,63.64
2018-10-01T13:12:09.878Z,66.47
2018-10-01T13:14:38.139Z,64.70
2018-10-01T13:17:06.427Z,63.36
2018-10-01T13:19:34.703Z,62.46
2018-10-01T13:22:02.997Z,61.87
2018-10-01T13:24:31.321Z,62.73
2018-10-01T13:26:59.579Z,62.30
2018-10-01T13:29:27.869Z,61.68
2018-10-01T13:31:56.186Z,63.18
2018-10-01T13:34:24.578Z,59.96
2018-10-01T13:36:52.887Z,58.75
2018-10-01T13:39:21.490Z,61.64
2018-10-01T13:41:49.772Z,61.61
2018-10-01T13:44:18.079Z,72.30
2018-10-01T13:46:46.347Z,81.54
2018-10-01T13:49:16.142Z,93.28
2018-10-01T13:51:44.392Z,96.43
2018-10-01T13:54:15.997Z,100.00
2018-10-01T13:56:44.215Z,100.00
2018-10-01T13:59:12.511Z,100.00
2018-10-01T14:01:40.947Z,100.00
2018-10-01T14:04:09.099Z,100.00
2018-10-01T14:06:37.393Z,100.00
2018-10-01T14:09:05.683Z,100.00
2018-10-01T14:11:33.975Z,100.00
2018-10-01T14:14:02.316Z,100.00
2018-10-01T14:16:30.564Z,100.00
2018-10-01T14:18:58.995Z,100.00
2018-10-01T14:21:27.190Z,94.15
2018-10-01T14:23:55.590Z,93.84
2018-10-01T14:26:23.767Z,85.90
2018-10-01T14:28:52.056Z,95.23
2018-10-01T14:31:20.347Z,92.40
2018-10-01T14:33:48.624Z,88.76
2018-10-01T14:36:17.017Z,82.66
2018-10-01T14:38:45.203Z,83.21
2018-10-01T14:41:13.490Z,87.73
2018-10-01T14:43:41.783Z,86.65
2018-10-01T14:46:10.083Z,85.64
2018-10-01T14:48:38.448Z,85.40
2018-10-01T14:51:06.696Z,80.42
2018-10-01T14:53:34.942Z,77.76
2018-10-01T14:56:03.246Z,79.53
2018-10-01T14:58:31.534Z,78.92
2018-10-01T15:00:59.860Z,77.72
2018-10-01T15:03:28.427Z,75.12
2018-10-01T15:05:56.739Z,72.42
2018-10-01T15:08:24.994Z,79.21
2018-10-01T15:10:53.364Z,74.63
2018-10-01T15:13:21.592Z,70.96
2018-10-01T15:15:49.874Z,74.95
2018-10-01T15:18:18.181Z,71.79
2018-10-01T15:20:46.453Z,76.00
2018-10-01T15:23:14.723Z,77.16
2018-10-01T15:25:43.073Z,73.22
2018-10-01T15:28:11.351Z,74.25
2018-10-01T15:30:39.809Z,72.63
2018-10-01T15:33:07.940Z,70.24
2018-10-01T15:35:36.223Z,69.80
2018-10-01T15:38:04.546Z,69.90
2018-10-01T15:40:32.827Z,68.91
2018-10-01T15:43:01.119Z,65.76
2018-10-01T15:45:29.404Z,66.96
2018-10-01T15:47:57.691Z,68.55
2018-10-01T15:50:25.976Z,67.82
2018-10-01T15:52:54.252Z,70.14
2018-10-01T15:55:22.535Z,69.46
2018-10-01T15:57:50.827Z,64.99
2018-10-01T16:00:19.118Z,69.87
2018-10-01T16:02:47.423Z,69.28
2018-10-01T16:05:15.707Z,64.45
2018-10-01T16:07:43.990Z,67.75
2018-10-01T16:10:12.267Z,65.88
2018-10-01T16:12:40.568Z,66.19
2018-10-01T16:15:08.845Z,66.38
2018-10-01T16:17:37.127Z,70.77
2018-10-01T16:20:05.414Z,69.93
2018-10-01T16:22:33.723Z,67.95
2018-10-01T16:25:01.983Z,67.54
2018-10-01T16:27:30.283Z,67.78
2018-10-01T16:29:58.559Z,68.49
2018-10-01T16:32:26.844Z,70.68
2018-10-01T16:34:55.133Z,70.24
2018-10-01T16:37:23.411Z,68.31
2018-10-01T16:39:51.708Z,70.33
2018-10-01T16:42:20.077Z,70.52
2018-10-01T16:44:48.363Z,69.25
2018-10-01T16:47:16.662Z,71.33
2018-10-01T16:49:44.941Z,69.44
2018-10-01T16:52:13.278Z,72.73
2018-10-01T16:54:41.515Z,74.03
2018-10-01T16:57:09.800Z,73.17
2018-10-01T16:59:38.092Z,73.86
2018-10-01T17:02:06.363Z,75.30
2018-10-01T17:04:34.671Z,76.05
2018-10-01T17:07:02.947Z,76.07
2018-10-01T17:09:31.246Z,77.21
2018-10-01T17:11:59.528Z,78.50
2018-10-01T17:14:27.802Z,80.42
2018-10-01T17:16:56.091Z,81.79
2018-10-01T17:19:24.418Z,78.83
2018-10-01T17:21:52.667Z,77.95
2018-10-01T17:24:20.947Z,74.69
2018-10-01T17:26:49.231Z,88.28
2018-10-01T17:29:17.535Z,97.61
2018-10-01T17:31:45.819Z,100.00
2018-10-01T17:34:14.110Z,100.00
2018-10-01T17:36:42.403Z,100.00
2018-10-01T17:39:10.707Z,100.00
2018-10-01T17:41:39.991Z,100.00
2018-10-01T17:44:08.272Z,100.00
2018-10-01T17:46:36.566Z,100.00
2018-10-01T17:49:04.856Z,100.00
2018-10-01T17:51:33.144Z,100.00
2018-10-01T17:54:01.535Z,100.00
2018-10-01T17:56:29.787Z,100.00
2018-10-01T17:58:58.067Z,100.00
2018-10-01T18:01:26.363Z,100.00
2018-10-01T18:03:54.643Z,100.00
2018-10-01T18:06:22.992Z,100.00
2018-10-01T18:08:51.215Z,100.00
2018-10-01T18:11:19.501Z,100.00
2018-10-01T18:13:47.799Z,100.00
2018-10-01T18:16:16.099Z,100.00
2018-10-01T18:18:44.392Z,100.00
2018-10-01T18:21:12.672Z,100.00
2018-10-01T18:23:40.988Z,100.00
2018-10-01T18:26:09.259Z,100.00
2018-10-01T18:28:37.551Z,97.65
2018-10-01T18:31:05.835Z,100.00
2018-10-01T18:33:34.131Z,95.91
2018-10-01T18:36:02.477Z,100.00
2018-10-01T18:38:31.682Z,94.02
2018-10-01T18:41:00.015Z,100.00
2018-10-01T18:43:28.345Z,100.00
2018-10-01T18:45:56.586Z,96.99
2018-10-01T18:48:25.023Z,98.33
2018-10-01T18:50:53.466Z,99.14
2018-10-01T18:53:21.749Z,91.77
2018-10-01T18:55:50.032Z,92.16
2018-10-01T18:58:18.319Z,90.75
2018-10-01T19:00:46.596Z,90.56
2018-10-01T19:03:14.891Z,100.00
2018-10-01T19:05:43.176Z,100.00
2018-10-01T19:08:11.479Z,100.00
2018-10-01T19:10:39.759Z,100.00
2018-10-01T19:13:08.039Z,100.00
2018-10-01T19:15:36.343Z,97.60
2018-10-01T19:18:04.659Z,95.80
2018-10-01T19:20:32.882Z,93.55
2018-10-01T19:23:01.169Z,97.40
2018-10-01T19:25:29.439Z,94.12
2018-10-01T19:27:57.719Z,98.34
2018-10-01T19:30:26.080Z,100.00
2018-10-01T19:32:54.327Z,100.00
2018-10-01T19:35:22.586Z,100.00
2018-10-01T19:37:50.916Z,100.00
2018-10-01T19:40:19.211Z,100.00
2018-10-01T19:42:47.503Z,100.00
2018-10-01T19:45:15.906Z,100.00
2018-10-01T19:47:44.107Z,100.00
2018-10-01T19:50:12.401Z,100.00
2018-10-01T19:52:40.694Z,100.00
2018-10-01T19:55:08.984Z,100.00
2018-10-01T19:57:37.263Z,100.00
2018-10-01T20:00:05.618Z,100.00
2018-10-01T20:02:33.842Z,100.00
2018-10-01T20:05:02.159Z,100.00
2018-10-01T20:07:30.415Z,100.00
2018-10-01T20:09:58.726Z,100.00
2018-10-01T20:12:26.992Z,100.00
2018-10-01T20:14:55.273Z,100.00
2018-10-01T20:17:23.558Z,100.00
2018-10-01T20:19:51.847Z,100.00
2018-10-01T20:22:20.183Z,100.00
2018-10-01T20:24:48.468Z,100.00
2018-10-01T20:27:16.817Z,100.00
2018-10-01T20:29:45.117Z,100.00
2018-10-01T20:32:13.373Z,100.00
2018-10-01T20:34:41.670Z,100.00
2018-10-01T20:37:09.906Z,100.00
2018-10-01T20:39:38.207Z,100.00
2018-10-01T20:42:06.487Z,100.00
2018-10-01T20:44:34.766Z,100.00
2018-10-01T20:47:03.082Z,100.00
2018-10-01T20:49:31.359Z,100.00
2018-10-01T20:51:59.643Z,100.00
2018-10-01T20:54:27.931Z,100.00
2018-10-01T20:56:56.219Z,100.00
2018-10-01T20:59:24.569Z,100.00
2018-10-01T21:01:52.804Z,100.00
2018-10-01T21:04:21.079Z,100.00
2018-10-01T21:06:49.375Z,100.00
2018-10-01T21:09:17.659Z,98.47
2018-10-01T21:11:45.956Z,100.00
2018-10-01T21:14:14.253Z,100.00
2018-10-01T21:16:42.511Z,97.47
2018-10-01T21:19:10.826Z,98.24
2018-10-01T21:21:39.080Z,94.68
2018-10-01T21:24:07.372Z,94.73
2018-10-01T21:26:35.764Z,100.00
2018-10-01T21:29:04.043Z,99.27
2018-10-01T21:31:32.326Z,98.41
2018-10-01T21:34:00.666Z,100.00
2018-10-01T21:36:29.068Z,90.88
2018-10-01T21:38:57.376Z,92.62
2018-10-01T21:41:25.679Z,91.64
2018-10-01T21:43:53.690Z,95.83
2018-10-01T21:46:21.964Z,91.50
2018-10-01T21:48:50.249Z,91.96
2018-10-01T21:51:18.523Z,95.59
2018-10-01T21:53:46.803Z,96.56
2018-10-01T21:56:15.083Z,94.19
2018-10-01T21:58:43.372Z,94.60
2018-10-01T22:01:11.668Z,100.00
2018-10-01T22:03:39.954Z,99.35
2018-10-01T22:06:08.243Z,100.00
2018-10-01T22:08:36.555Z,97.55
2018-10-01T22:11:04.843Z,93.39
2018-10-01T22:13:33.131Z,95.36
2018-10-01T22:16:01.490Z,93.98
2018-10-01T22:18:29.764Z,98.61
2018-10-01T22:20:58.046Z,96.06
2018-10-01T22:23:26.332Z,95.22
2018-10-01T22:25:54.611Z,97.35
2018-10-01T22:28:22.899Z,98.16
2018-10-01T22:30:51.231Z,100.00
2018-10-01T22:33:19.515Z,100.00
2018-10-01T22:35:47.795Z,99.65
2018-10-01T22:38:16.074Z,99.92
2018-10-01T22:40:44.363Z,97.77
2018-10-01T22:43:12.639Z,100.00
2018-10-01T22:45:40.915Z,100.00
2018-10-01T22:48:09.207Z,100.00
2018-10-01T22:50:37.483Z,100.00
2018-10-01T22:53:05.775Z,100.00
2018-10-01T22:55:34.054Z,100.00
2018-10-01T22:58:02.400Z,100.00
2018-10-01T23:00:30.755Z,100.00
2018-10-01T23:02:59.038Z,100.00
2018-10-01T23:05:27.343Z,100.00
2018-10-01T23:07:55.619Z,100.00
2018-10-01T23:10:23.911Z,100.00
2018-10-01T23:12:52.212Z,100.00
2018-10-01T23:15:20.511Z,100.00
2018-10-01T23:17:48.785Z,100.00
2018-10-01T23:20:17.059Z,100.00
2018-10-01T23:22:45.342Z,100.00
2018-10-01T23:25:13.618Z,100.00
2018-10-01T23:27:41.912Z,100.00
2018-10-01T23:30:10.189Z,100.00
2018-10-01T23:32:38.475Z,100.00
2018-10-01T23:35:06.754Z,100.00
2018-10-01T23:37:35.042Z,100.00
2018-10-01T23:40:03.327Z,100.00
2018-10-01T23:42:31.603Z,100.00
2018-10-01T23:44:59.904Z,98.12
2018-10-01T23:47:28.178Z,99.43
2018-10-01T23:49:56.464Z,100.00
2018-10-01T23:52:24.759Z,100.00
2018-10-01T23:54:53.171Z,97.46
2018-10-01T23:57:21.475Z,97.38
2018-10-01T23:59:49.738Z,100.00
